sensor_id;sensor_type;location;lat;lon;timestamp;pressure;altitude;pressure_sealevel;temperature;humidity
31681;BME280;18281;51.364;9.566;2023-03-13T00:03:39;99118.53;;;3.06;100.00
31681;BME280;18281;51.364;9.566;2023-03-13T00:06:04;99115.41;;;2.98;100.00
31681;BME280;18281;51.364;9.566;2023-03-13T00:08:30;99106.25;;;2.89;100.00
31681;BME280;18281;51.364;9.566;2023-03-13T00:10:55;99103.34;;;2.97;100.00
31681;BME280;18281;51.364;9.566;2023-03-13T00:13:21;99098.75;;;3.03;100.00
31681;BME280;18281;51.364;9.566;2023-03-13T00:15:46;99094.16;;;3.10;100.00
31681;BME280;18281;51.364;9.566;2023-03-13T00:18:12;99098.31;;;3.14;100.00
31681;BME280;18281;51.364;9.566;2023-03-13T00:20:37;99095.31;;;3.03;100.00
31681;BME280;18281;51.364;9.566;2023-03-13T00:23:03;99085.63;;;3.08;100.00
31681;BME280;18281;51.364;9.566;2023-03-13T00:25:28;99075.91;;;3.13;100.00
31681;BME280;18281;51.364;9.566;2023-03-13T00:27:53;99079.22;;;3.17;100.00
31681;BME280;18281;51.364;9.566;2023-03-13T00:30:19;99071.84;;;3.06;100.00
31681;BME280;18281;51.364;9.566;2023-03-13T00:32:45;99072.13;;;3.00;100.00
31681;BME280;18281;51.364;9.566;2023-03-13T00:35:12;99073.25;;;3.15;100.00
31681;BME280;18281;51.364;9.566;2023-03-13T00:37:38;99072.41;;;3.14;100.00
31681;BME280;18281;51.364;9.566;2023-03-13T00:40:04;99066.38;;;3.14;100.00
31681;BME280;18281;51.364;9.566;2023-03-13T00:42:30;99062.09;;;3.13;100.00
31681;BME280;18281;51.364;9.566;2023-03-13T00:44:56;99066.56;;;3.09;100.00
31681;BME280;18281;51.364;9.566;2023-03-13T00:47:21;99060.16;;;3.18;100.00
31681;BME280;18281;51.364;9.566;2023-03-13T00:49:47;99054.31;;;3.13;100.00
31681;BME280;18281;51.364;9.566;2023-03-13T00:52:12;99050.75;;;3.15;100.00
31681;BME280;18281;51.364;9.566;2023-03-13T00:54:38;99035.13;;;3.17;100.00
31681;BME280;18281;51.364;9.566;2023-03-13T00:57:03;99028.19;;;3.17;100.00
31681;BME280;18281;51.364;9.566;2023-03-13T00:59:29;99021.97;;;3.21;100.00
31681;BME280;18281;51.364;9.566;2023-03-13T01:01:54;99019.47;;;3.20;100.00
31681;BME280;18281;51.364;9.566;2023-03-13T01:04:19;99016.72;;;3.23;100.00
31681;BME280;18281;51.364;9.566;2023-03-13T01:06:45;99004.59;;;3.23;100.00
31681;BME280;18281;51.364;9.566;2023-03-13T01:09:13;99002.94;;;3.22;100.00
31681;BME280;18281;51.364;9.566;2023-03-13T01:11:40;99002.13;;;3.20;100.00
31681;BME280;18281;51.364;9.566;2023-03-13T01:14:09;99004.66;;;3.22;100.00
31681;BME280;18281;51.364;9.566;2023-03-13T01:16:36;98999.41;;;3.23;100.00
31681;BME280;18281;51.364;9.566;2023-03-13T01:19:10;98991.50;;;3.27;100.00
31681;BME280;18281;51.364;9.566;2023-03-13T01:21:36;98974.91;;;3.31;100.00
31681;BME280;18281;51.364;9.566;2023-03-13T01:24:02;98980.19;;;3.28;100.00
31681;BME280;18281;51.364;9.566;2023-03-13T01:26:28;98974.13;;;3.29;100.00
31681;BME280;18281;51.364;9.566;2023-03-13T01:28:54;98968.75;;;3.33;100.00
31681;BME280;18281;51.364;9.566;2023-03-13T01:31:22;98967.13;;;3.31;100.00
31681;BME280;18281;51.364;9.566;2023-03-13T01:33:50;98958.56;;;3.29;100.00
31681;BME280;18281;51.364;9.566;2023-03-13T01:36:17;98955.13;;;3.28;100.00
31681;BME280;18281;51.364;9.566;2023-03-13T01:38:43;98945.25;;;3.36;100.00
31681;BME280;18281;51.364;9.566;2023-03-13T01:41:10;98949.72;;;3.33;100.00
31681;BME280;18281;51.364;9.566;2023-03-13T01:43:36;98937.69;;;3.32;100.00
31681;BME280;18281;51.364;9.566;2023-03-13T01:48:44;98935.59;;;3.40;100.00
31681;BME280;18281;51.364;9.566;2023-03-13T01:54:28;98912.25;;;3.40;100.00
31681;BME280;18281;51.364;9.566;2023-03-13T01:56:58;98914.72;;;3.43;100.00
31681;BME280;18281;51.364;9.566;2023-03-13T01:59:32;98905.16;;;3.44;100.00
31681;BME280;18281;51.364;9.566;2023-03-13T02:02:01;98908.69;;;3.43;100.00
31681;BME280;18281;51.364;9.566;2023-03-13T02:04:30;98900.84;;;3.44;100.00
31681;BME280;18281;51.364;9.566;2023-03-13T02:07:02;98894.63;;;3.48;100.00
31681;BME280;18281;51.364;9.566;2023-03-13T02:09:30;98887.00;;;3.45;100.00
31681;BME280;18281;51.364;9.566;2023-03-13T02:12:07;98883.47;;;3.46;100.00
31681;BME280;18281;51.364;9.566;2023-03-13T02:14:36;98879.81;;;3.50;100.00
31681;BME280;18281;51.364;9.566;2023-03-13T02:17:03;98865.94;;;3.51;100.00
31681;BME280;18281;51.364;9.566;2023-03-13T02:22:14;98861.53;;;3.53;100.00
31681;BME280;18281;51.364;9.566;2023-03-13T02:27:15;98853.75;;;3.53;100.00
31681;BME280;18281;51.364;9.566;2023-03-13T02:29:41;98840.78;;;3.53;100.00
31681;BME280;18281;51.364;9.566;2023-03-13T02:32:07;98838.94;;;3.55;100.00
31681;BME280;18281;51.364;9.566;2023-03-13T02:34:34;98833.63;;;3.59;100.00
31681;BME280;18281;51.364;9.566;2023-03-13T02:37:03;98830.16;;;3.58;100.00
31681;BME280;18281;51.364;9.566;2023-03-13T02:39:30;98820.50;;;3.62;100.00
31681;BME280;18281;51.364;9.566;2023-03-13T02:41:57;98823.09;;;3.62;100.00
31681;BME280;18281;51.364;9.566;2023-03-13T02:44:24;98812.63;;;3.63;100.00
31681;BME280;18281;51.364;9.566;2023-03-13T02:46:50;98817.00;;;3.63;100.00
31681;BME280;18281;51.364;9.566;2023-03-13T02:51:46;98808.16;;;3.67;100.00
31681;BME280;18281;51.364;9.566;2023-03-13T02:54:16;98802.97;;;3.67;100.00
31681;BME280;18281;51.364;9.566;2023-03-13T02:56:42;98806.47;;;3.66;100.00
31681;BME280;18281;51.364;9.566;2023-03-13T02:59:09;98806.31;;;3.69;100.00
31681;BME280;18281;51.364;9.566;2023-03-13T03:01:35;98786.47;;;3.68;100.00
31681;BME280;18281;51.364;9.566;2023-03-13T03:04:00;98783.03;;;3.67;100.00
31681;BME280;18281;51.364;9.566;2023-03-13T03:06:25;98776.03;;;3.69;100.00
31681;BME280;18281;51.364;9.566;2023-03-13T03:08:51;98768.00;;;3.74;100.00
31681;BME280;18281;51.364;9.566;2023-03-13T03:11:16;98764.50;;;3.75;100.00
31681;BME280;18281;51.364;9.566;2023-03-13T03:13:41;98755.66;;;3.79;100.00
31681;BME280;18281;51.364;9.566;2023-03-13T03:16:09;98736.88;;;3.74;100.00
31681;BME280;18281;51.364;9.566;2023-03-13T03:18:35;98728.09;;;3.77;100.00
31681;BME280;18281;51.364;9.566;2023-03-13T03:21:01;98713.31;;;3.79;100.00
31681;BME280;18281;51.364;9.566;2023-03-13T03:23:33;98705.44;;;3.80;100.00
31681;BME280;18281;51.364;9.566;2023-03-13T03:25:59;98701.97;;;3.80;100.00
31681;BME280;18281;51.364;9.566;2023-03-13T03:28:24;98700.25;;;3.80;100.00
31681;BME280;18281;51.364;9.566;2023-03-13T03:30:50;98705.28;;;3.83;100.00
31681;BME280;18281;51.364;9.566;2023-03-13T03:33:17;98705.34;;;3.82;100.00
31681;BME280;18281;51.364;9.566;2023-03-13T03:35:42;98701.69;;;3.86;100.00
31681;BME280;18281;51.364;9.566;2023-03-13T03:38:08;98687.72;;;3.88;100.00
31681;BME280;18281;51.364;9.566;2023-03-13T03:40:33;98680.69;;;3.91;100.00
31681;BME280;18281;51.364;9.566;2023-03-13T03:42:59;98680.84;;;3.87;100.00
31681;BME280;18281;51.364;9.566;2023-03-13T03:45:24;98673.84;;;3.89;100.00
31681;BME280;18281;51.364;9.566;2023-03-13T03:47:49;98673.84;;;3.89;100.00
31681;BME280;18281;51.364;9.566;2023-03-13T03:50:15;98653.88;;;3.90;100.00
31681;BME280;18281;51.364;9.566;2023-03-13T03:52:40;98651.03;;;3.95;100.00
31681;BME280;18281;51.364;9.566;2023-03-13T03:55:06;98650.22;;;3.94;100.00
31681;BME280;18281;51.364;9.566;2023-03-13T03:57:31;98647.41;;;3.99;100.00
31681;BME280;18281;51.364;9.566;2023-03-13T03:59:56;98644.03;;;3.97;100.00
31681;BME280;18281;51.364;9.566;2023-03-13T04:02:22;98638.00;;;3.96;100.00
31681;BME280;18281;51.364;9.566;2023-03-13T04:04:47;98637.16;;;3.96;100.00
31681;BME280;18281;51.364;9.566;2023-03-13T04:07:12;98623.25;;;3.97;100.00
31681;BME280;18281;51.364;9.566;2023-03-13T04:09:38;98634.44;;;3.99;100.00
31681;BME280;18281;51.364;9.566;2023-03-13T04:12:03;98625.47;;;4.04;100.00
31681;BME280;18281;51.364;9.566;2023-03-13T04:14:29;98615.31;;;4.00;100.00
31681;BME280;18281;51.364;9.566;2023-03-13T04:16:54;98605.63;;;4.03;100.00
31681;BME280;18281;51.364;9.566;2023-03-13T04:19:20;98602.09;;;4.04;100.00
31681;BME280;18281;51.364;9.566;2023-03-13T04:21:45;98607.91;;;4.10;100.00
31681;BME280;18281;51.364;9.566;2023-03-13T04:24:11;98618.22;;;4.11;100.00
31681;BME280;18281;51.364;9.566;2023-03-13T04:26:36;98630.88;;;4.17;100.00
31681;BME280;18281;51.364;9.566;2023-03-13T04:29:01;98615.44;;;4.14;100.00
31681;BME280;18281;51.364;9.566;2023-03-13T04:31:27;98632.72;;;4.15;100.00
31681;BME280;18281;51.364;9.566;2023-03-13T04:33:52;98606.50;;;4.20;100.00
31681;BME280;18281;51.364;9.566;2023-03-13T04:36:18;98603.75;;;4.23;100.00
31681;BME280;18281;51.364;9.566;2023-03-13T04:38:43;98613.16;;;4.26;100.00
31681;BME280;18281;51.364;9.566;2023-03-13T04:41:08;98603.34;;;4.31;100.00
31681;BME280;18281;51.364;9.566;2023-03-13T04:43:34;98616.50;;;4.28;100.00
31681;BME280;18281;51.364;9.566;2023-03-13T04:45:59;98612.00;;;4.31;100.00
31681;BME280;18281;51.364;9.566;2023-03-13T04:48:24;98605.09;;;4.30;100.00
31681;BME280;18281;51.364;9.566;2023-03-13T04:50:50;98604.28;;;4.30;100.00
31681;BME280;18281;51.364;9.566;2023-03-13T04:53:15;98585.84;;;4.34;100.00
31681;BME280;18281;51.364;9.566;2023-03-13T04:55:41;98584.06;;;4.35;100.00
31681;BME280;18281;51.364;9.566;2023-03-13T04:58:06;98561.19;;;4.42;100.00
31681;BME280;18281;51.364;9.566;2023-03-13T05:00:32;98561.44;;;4.37;100.00
31681;BME280;18281;51.364;9.566;2023-03-13T05:02:57;98562.22;;;4.39;100.00
31681;BME280;18281;51.364;9.566;2023-03-13T05:05:22;98557.78;;;4.41;100.00
31681;BME280;18281;51.364;9.566;2023-03-13T05:07:48;98575.34;;;4.36;100.00
31681;BME280;18281;51.364;9.566;2023-03-13T05:10:13;98566.38;;;4.42;100.00
31681;BME280;18281;51.364;9.566;2023-03-13T05:12:39;98577.22;;;4.34;100.00
31681;BME280;18281;51.364;9.566;2023-03-13T05:15:04;98563.88;;;4.40;100.00
31681;BME280;18281;51.364;9.566;2023-03-13T05:17:30;98566.34;;;4.43;100.00
31681;BME280;18281;51.364;9.566;2023-03-13T05:19:56;98572.88;;;4.50;100.00
31681;BME280;18281;51.364;9.566;2023-03-13T05:22:21;98575.28;;;4.53;100.00
31681;BME280;18281;51.364;9.566;2023-03-13T05:24:46;98573.78;;;4.49;100.00
31681;BME280;18281;51.364;9.566;2023-03-13T05:27:12;98570.28;;;4.50;100.00
31681;BME280;18281;51.364;9.566;2023-03-13T05:29:37;98569.44;;;4.50;100.00
31681;BME280;18281;51.364;9.566;2023-03-13T05:32:03;98563.97;;;4.54;100.00
31681;BME280;18281;51.364;9.566;2023-03-13T05:34:29;98559.56;;;4.56;100.00
31681;BME280;18281;51.364;9.566;2023-03-13T05:36:54;98557.97;;;4.54;100.00
31681;BME280;18281;51.364;9.566;2023-03-13T05:39:20;98561.22;;;4.57;100.00
31681;BME280;18281;51.364;9.566;2023-03-13T05:41:45;98558.47;;;4.61;100.00
31681;BME280;18281;51.364;9.566;2023-03-13T05:44:10;98546.28;;;4.61;100.00
31681;BME280;18281;51.364;9.566;2023-03-13T05:46:36;98539.31;;;4.62;100.00
31681;BME280;18281;51.364;9.566;2023-03-13T05:49:01;98545.63;;;4.57;100.00
31681;BME280;18281;51.364;9.566;2023-03-13T05:51:26;98537.69;;;4.61;100.00
31681;BME280;18281;51.364;9.566;2023-03-13T05:53:52;98541.09;;;4.61;100.00
31681;BME280;18281;51.364;9.566;2023-03-13T05:56:17;98540.78;;;4.67;100.00
31681;BME280;18281;51.364;9.566;2023-03-13T05:58:43;98517.19;;;4.70;100.00
31681;BME280;18281;51.364;9.566;2023-03-13T06:01:09;98509.31;;;4.72;100.00
31681;BME280;18281;51.364;9.566;2023-03-13T06:03:35;98502.44;;;4.71;100.00
31681;BME280;18281;51.364;9.566;2023-03-13T06:06:01;98496.31;;;4.72;100.00
31681;BME280;18281;51.364;9.566;2023-03-13T06:08:26;98491.88;;;4.74;100.00
31681;BME280;18281;51.364;9.566;2023-03-13T06:10:52;98501.50;;;4.72;100.00
31681;BME280;18281;51.364;9.566;2023-03-13T06:13:17;98499.50;;;4.77;100.00
31681;BME280;18281;51.364;9.566;2023-03-13T06:15:43;98514.16;;;5.24;100.00
31681;BME280;18281;51.364;9.566;2023-03-13T06:18:14;98511.88;;;5.79;100.00
31681;BME280;18281;51.364;9.566;2023-03-13T06:20:39;98513.84;;;6.19;100.00
31681;BME280;18281;51.364;9.566;2023-03-13T06:23:05;98508.38;;;5.80;100.00
31681;BME280;18281;51.364;9.566;2023-03-13T06:25:30;98520.25;;;5.70;100.00
31681;BME280;18281;51.364;9.566;2023-03-13T06:27:55;98530.47;;;5.59;100.00
31681;BME280;18281;51.364;9.566;2023-03-13T06:30:21;98518.00;;;5.49;100.00
31681;BME280;18281;51.364;9.566;2023-03-13T06:32:46;98525.41;;;5.41;100.00
31681;BME280;18281;51.364;9.566;2023-03-13T06:35:11;98521.31;;;5.37;100.00
31681;BME280;18281;51.364;9.566;2023-03-13T06:37:36;98522.53;;;5.30;100.00
31681;BME280;18281;51.364;9.566;2023-03-13T06:40:02;98531.13;;;5.32;100.00
31681;BME280;18281;51.364;9.566;2023-03-13T06:42:36;98537.44;;;5.28;100.00
31681;BME280;18281;51.364;9.566;2023-03-13T06:58:50;98519.22;;;5.28;100.00
31681;BME280;18281;51.364;9.566;2023-03-13T07:01:16;98528.81;;;5.72;100.00
31681;BME280;18281;51.364;9.566;2023-03-13T07:03:42;98538.22;;;6.03;100.00
31681;BME280;18281;51.364;9.566;2023-03-13T07:06:09;98517.19;;;6.21;100.00
31681;BME280;18281;51.364;9.566;2023-03-13T07:08:36;98523.16;;;6.09;100.00
31681;BME280;18281;51.364;9.566;2023-03-13T07:11:08;98521.75;;;6.03;100.00
31681;BME280;18281;51.364;9.566;2023-03-13T07:13:33;98513.03;;;6.04;100.00
31681;BME280;18281;51.364;9.566;2023-03-13T07:16:04;98514.88;;;6.02;100.00
31681;BME280;18281;51.364;9.566;2023-03-13T07:18:30;98519.25;;;6.01;100.00
31681;BME280;18281;51.364;9.566;2023-03-13T07:21:00;98515.34;;;6.09;100.00
31681;BME280;18281;51.364;9.566;2023-03-13T07:23:27;98531.78;;;6.38;100.00
31681;BME280;18281;51.364;9.566;2023-03-13T07:25:57;98529.41;;;6.62;100.00
31681;BME280;18281;51.364;9.566;2023-03-13T07:28:24;98536.53;;;6.87;100.00
31681;BME280;18281;51.364;9.566;2023-03-13T07:30:50;98527.41;;;6.95;100.00
31681;BME280;18281;51.364;9.566;2023-03-13T07:33:16;98529.41;;;7.04;100.00
31681;BME280;18281;51.364;9.566;2023-03-13T07:35:51;98533.81;;;7.03;100.00
31681;BME280;18281;51.364;9.566;2023-03-13T07:38:18;98527.47;;;6.93;100.00
31681;BME280;18281;51.364;9.566;2023-03-13T07:40:51;98533.56;;;6.79;100.00
31681;BME280;18281;51.364;9.566;2023-03-13T07:43:17;98531.75;;;6.67;100.00
31681;BME280;18281;51.364;9.566;2023-03-13T07:46:10;98524.63;;;6.56;100.00
31681;BME280;18281;51.364;9.566;2023-03-13T07:48:41;98516.50;;;6.46;100.00
31681;BME280;18281;51.364;9.566;2023-03-13T07:53:45;98522.19;;;6.38;100.00
31681;BME280;18281;51.364;9.566;2023-03-13T07:56:16;98528.84;;;6.30;100.00
31681;BME280;18281;51.364;9.566;2023-03-13T07:58:52;98528.72;;;6.31;100.00
31681;BME280;18281;51.364;9.566;2023-03-13T08:01:27;98525.88;;;6.21;100.00
31681;BME280;18281;51.364;9.566;2023-03-13T08:03:53;98532.56;;;6.26;100.00
31681;BME280;18281;51.364;9.566;2023-03-13T08:06:22;98520.56;;;6.23;100.00
31681;BME280;18281;51.364;9.566;2023-03-13T08:08:49;98526.69;;;6.22;100.00
31681;BME280;18281;51.364;9.566;2023-03-13T08:11:17;98529.38;;;6.20;100.00
31681;BME280;18281;51.364;9.566;2023-03-13T08:13:43;98534.41;;;6.23;100.00
31681;BME280;18281;51.364;9.566;2023-03-13T08:16:16;98530.97;;;6.23;100.00
31681;BME280;18281;51.364;9.566;2023-03-13T08:18:44;98532.75;;;6.22;100.00
31681;BME280;18281;51.364;9.566;2023-03-13T08:21:12;98523.34;;;6.20;100.00
31681;BME280;18281;51.364;9.566;2023-03-13T08:23:38;98534.59;;;6.20;100.00
31681;BME280;18281;51.364;9.566;2023-03-13T08:26:08;98540.75;;;6.19;100.00
31681;BME280;18281;51.364;9.566;2023-03-13T08:28:37;98541.59;;;6.20;100.00
31681;BME280;18281;51.364;9.566;2023-03-13T08:31:18;98549.56;;;6.17;100.00
31681;BME280;18281;51.364;9.566;2023-03-13T08:33:50;98555.44;;;6.20;100.00
31681;BME280;18281;51.364;9.566;2023-03-13T08:36:27;98564.84;;;6.23;100.00
31681;BME280;18281;51.364;9.566;2023-03-13T08:39:11;98554.31;;;6.24;100.00
31681;BME280;18281;51.364;9.566;2023-03-13T08:41:40;98553.59;;;6.22;100.00
31681;BME280;18281;51.364;9.566;2023-03-13T08:44:08;98552.84;;;6.20;100.00
31681;BME280;18281;51.364;9.566;2023-03-13T08:46:50;98549.88;;;6.27;100.00
31681;BME280;18281;51.364;9.566;2023-03-13T08:49:22;98552.47;;;6.27;100.00
31681;BME280;18281;51.364;9.566;2023-03-13T08:52:03;98556.75;;;6.28;100.00
31681;BME280;18281;51.364;9.566;2023-03-13T08:54:52;98552.19;;;6.31;100.00
31681;BME280;18281;51.364;9.566;2023-03-13T08:57:35;98547.78;;;6.32;100.00
31681;BME280;18281;51.364;9.566;2023-03-13T09:00:01;98554.53;;;6.36;100.00
31681;BME280;18281;51.364;9.566;2023-03-13T09:02:29;98554.44;;;6.37;100.00
31681;BME280;18281;51.364;9.566;2023-03-13T09:04:58;98548.25;;;6.38;100.00
31681;BME280;18281;51.364;9.566;2023-03-13T09:07:31;98549.94;;;6.39;100.00
31681;BME280;18281;51.364;9.566;2023-03-13T09:10:23;98536.09;;;6.39;100.00
31681;BME280;18281;51.364;9.566;2023-03-13T09:16:27;98512.66;;;6.52;100.00
31681;BME280;18281;51.364;9.566;2023-03-13T09:19:17;98502.91;;;6.55;100.00
31681;BME280;18281;51.364;9.566;2023-03-13T09:21:57;98493.13;;;6.59;100.00
31681;BME280;18281;51.364;9.566;2023-03-13T09:27:24;98483.34;;;6.63;100.00
31681;BME280;18281;51.364;9.566;2023-03-13T09:29:52;98484.28;;;6.62;100.00
31681;BME280;18281;51.364;9.566;2023-03-13T09:32:20;98481.56;;;6.63;100.00
31681;BME280;18281;51.364;9.566;2023-03-13T09:34:56;98485.94;;;6.63;100.00
31681;BME280;18281;51.364;9.566;2023-03-13T09:37:55;98468.41;;;6.65;100.00
31681;BME280;18281;51.364;9.566;2023-03-13T09:40:21;98453.22;;;6.71;100.00
31681;BME280;18281;51.364;9.566;2023-03-13T09:43:01;98454.78;;;6.74;100.00
31681;BME280;18281;51.364;9.566;2023-03-13T09:45:34;98439.03;;;6.76;100.00
31681;BME280;18281;51.364;9.566;2023-03-13T09:48:10;98442.28;;;6.79;100.00
31681;BME280;18281;51.364;9.566;2023-03-13T09:50:44;98451.28;;;6.88;100.00
31681;BME280;18281;51.364;9.566;2023-03-13T09:53:14;98443.97;;;6.80;100.00
31681;BME280;18281;51.364;9.566;2023-03-13T09:55:43;98430.72;;;6.83;100.00
31681;BME280;18281;51.364;9.566;2023-03-13T09:58:20;98433.13;;;6.86;100.00
31681;BME280;18281;51.364;9.566;2023-03-13T10:00:54;98428.75;;;6.87;100.00
31681;BME280;18281;51.364;9.566;2023-03-13T10:03:34;98427.72;;;6.89;100.00
31681;BME280;18281;51.364;9.566;2023-03-13T10:06:09;98420.81;;;6.88;100.00
31681;BME280;18281;51.364;9.566;2023-03-13T10:08:37;98432.59;;;7.34;100.00
31681;BME280;18281;51.364;9.566;2023-03-13T10:13:47;98425.28;;;7.78;100.00
31681;BME280;18281;51.364;9.566;2023-03-13T10:16:43;98413.22;;;7.88;100.00
31681;BME280;18281;51.364;9.566;2023-03-13T10:19:16;98419.50;;;7.99;100.00
31681;BME280;18281;51.364;9.566;2023-03-13T10:21:44;98417.53;;;7.89;100.00
31681;BME280;18281;51.364;9.566;2023-03-13T10:24:16;98409.16;;;7.84;100.00
31681;BME280;18281;51.364;9.566;2023-03-13T10:26:43;98407.41;;;7.72;100.00
31681;BME280;18281;51.364;9.566;2023-03-13T10:29:23;98397.91;;;7.71;100.00
31681;BME280;18281;51.364;9.566;2023-03-13T10:32:02;98405.22;;;7.66;100.00
31681;BME280;18281;51.364;9.566;2023-03-13T10:34:44;98401.25;;;7.60;100.00
31681;BME280;18281;51.364;9.566;2023-03-13T10:37:29;98407.41;;;7.59;100.00
31681;BME280;18281;51.364;9.566;2023-03-13T10:40:12;98410.03;;;7.59;100.00
31681;BME280;18281;51.364;9.566;2023-03-13T10:42:42;98396.66;;;7.64;100.00
31681;BME280;18281;51.364;9.566;2023-03-13T10:45:17;98400.72;;;7.68;100.00
31681;BME280;18281;51.364;9.566;2023-03-13T10:48:09;98404.09;;;7.70;100.00
31681;BME280;18281;51.364;9.566;2023-03-13T10:50:37;98414.31;;;7.73;100.00
31681;BME280;18281;51.364;9.566;2023-03-13T10:56:14;98402.19;;;7.72;100.00
31681;BME280;18281;51.364;9.566;2023-03-13T10:58:41;98401.78;;;7.78;100.00
31681;BME280;18281;51.364;9.566;2023-03-13T11:01:27;98403.41;;;7.79;100.00
31681;BME280;18281;51.364;9.566;2023-03-13T11:03:55;98399.28;;;7.77;100.00
31681;BME280;18281;51.364;9.566;2023-03-13T11:06:33;98390.34;;;7.79;100.00
31681;BME280;18281;51.364;9.566;2023-03-13T11:09:12;98396.09;;;7.84;100.00
31681;BME280;18281;51.364;9.566;2023-03-13T11:11:53;98394.13;;;7.75;100.00
31681;BME280;18281;51.364;9.566;2023-03-13T11:14:21;98393.72;;;7.81;100.00
31681;BME280;18281;51.364;9.566;2023-03-13T11:16:50;98385.47;;;7.87;100.00
31681;BME280;18281;51.364;9.566;2023-03-13T11:25:11;98376.00;;;7.98;100.00
31681;BME280;18281;51.364;9.566;2023-03-13T11:27:44;98383.66;;;8.01;100.00
31681;BME280;18281;51.364;9.566;2023-03-13T11:36:01;98369.94;;;8.10;100.00
31681;BME280;18281;51.364;9.566;2023-03-13T11:38:34;98358.19;;;8.16;100.00
31681;BME280;18281;51.364;9.566;2023-03-13T11:41:13;98347.22;;;8.11;100.00
31681;BME280;18281;51.364;9.566;2023-03-13T11:51:52;98357.16;;;8.30;100.00
31681;BME280;18281;51.364;9.566;2023-03-13T11:57:17;98351.56;;;8.23;100.00
31681;BME280;18281;51.364;9.566;2023-03-13T12:02:36;98340.66;;;8.29;100.00
31681;BME280;18281;51.364;9.566;2023-03-13T12:05:09;98329.69;;;8.37;100.00
31681;BME280;18281;51.364;9.566;2023-03-13T12:07:48;98323.47;;;8.38;100.00
31681;BME280;18281;51.364;9.566;2023-03-13T12:10:18;98332.78;;;8.42;100.00
31681;BME280;18281;51.364;9.566;2023-03-13T12:12:50;98331.28;;;8.51;100.00
31681;BME280;18281;51.364;9.566;2023-03-13T12:18:02;98306.91;;;8.50;100.00
31681;BME280;18281;51.364;9.566;2023-03-13T12:23:16;98306.38;;;8.69;100.00
31681;BME280;18281;51.364;9.566;2023-03-13T12:31:27;98289.59;;;8.72;100.00
31681;BME280;18281;51.364;9.566;2023-03-13T12:36:45;98290.56;;;8.82;100.00
31681;BME280;18281;51.364;9.566;2023-03-13T12:45:06;98256.44;;;8.84;100.00
31681;BME280;18281;51.364;9.566;2023-03-13T12:47:37;98258.00;;;8.86;100.00
31681;BME280;18281;51.364;9.566;2023-03-13T12:50:25;98244.28;;;8.94;100.00
31681;BME280;18281;51.364;9.566;2023-03-13T12:58:45;98233.59;;;9.08;100.00
31681;BME280;18281;51.364;9.566;2023-03-13T13:01:36;98234.78;;;9.16;100.00
31681;BME280;18281;51.364;9.566;2023-03-13T13:04:06;98223.72;;;9.12;100.00
31681;BME280;18281;51.364;9.566;2023-03-13T13:06:56;98216.56;;;9.14;100.00
31681;BME280;18281;51.364;9.566;2023-03-13T13:09:30;98224.91;;;9.19;100.00
31681;BME280;18281;51.364;9.566;2023-03-13T13:12:21;98225.97;;;9.17;100.00
31681;BME280;18281;51.364;9.566;2023-03-13T13:19:45;98214.66;;;9.28;100.00
31681;BME280;18281;51.364;9.566;2023-03-13T13:25:01;98228.94;;;9.23;100.00
31681;BME280;18281;51.364;9.566;2023-03-13T13:27:47;98221.03;;;9.57;100.00
31681;BME280;18281;51.364;9.566;2023-03-13T13:30:31;98220.56;;;9.64;100.00
31681;BME280;18281;51.364;9.566;2023-03-13T13:38:34;98222.47;;;9.50;100.00
31681;BME280;18281;51.364;9.566;2023-03-13T13:46:27;98202.59;;;9.48;100.00
31681;BME280;18281;51.364;9.566;2023-03-13T13:51:36;98212.50;;;9.44;100.00
31681;BME280;18281;51.364;9.566;2023-03-13T13:54:29;98197.88;;;9.41;100.00
31681;BME280;18281;51.364;9.566;2023-03-13T13:57:05;98189.28;;;9.39;100.00
31681;BME280;18281;51.364;9.566;2023-03-13T13:59:39;98183.56;;;9.46;100.00
31681;BME280;18281;51.364;9.566;2023-03-13T14:04:52;98189.03;;;9.42;100.00
31681;BME280;18281;51.364;9.566;2023-03-13T14:12:36;98179.66;;;9.40;100.00
31681;BME280;18281;51.364;9.566;2023-03-13T14:15:25;98167.13;;;9.44;100.00
31681;BME280;18281;51.364;9.566;2023-03-13T14:17:53;98166.44;;;9.41;100.00
31681;BME280;18281;51.364;9.566;2023-03-13T14:20:31;98162.03;;;9.42;100.00
31681;BME280;18281;51.364;9.566;2023-03-13T14:23:02;98150.72;;;9.41;100.00
31681;BME280;18281;51.364;9.566;2023-03-13T14:30:45;98153.34;;;9.41;100.00
31681;BME280;18281;51.364;9.566;2023-03-13T14:33:11;98153.22;;;9.43;100.00
31681;BME280;18281;51.364;9.566;2023-03-13T14:35:38;98151.69;;;9.40;100.00
31681;BME280;18281;51.364;9.566;2023-03-13T14:38:04;98149.50;;;9.46;100.00
31681;BME280;18281;51.364;9.566;2023-03-13T14:40:30;98137.75;;;9.40;100.00
31681;BME280;18281;51.364;9.566;2023-03-13T14:42:59;98129.91;;;9.40;100.00
31681;BME280;18281;51.364;9.566;2023-03-13T14:45:29;98148.22;;;9.40;100.00
31681;BME280;18281;51.364;9.566;2023-03-13T14:48:00;98155.97;;;9.30;100.00
31681;BME280;18281;51.364;9.566;2023-03-13T14:50:26;98140.78;;;9.24;100.00
31681;BME280;18281;51.364;9.566;2023-03-13T14:53:00;98139.38;;;9.20;100.00
31681;BME280;18281;51.364;9.566;2023-03-13T14:55:34;98131.84;;;9.27;100.00
31681;BME280;18281;51.364;9.566;2023-03-13T14:58:24;98127.69;;;9.24;100.00
31681;BME280;18281;51.364;9.566;2023-03-13T15:00:51;98129.50;;;9.12;100.00
31681;BME280;18281;51.364;9.566;2023-03-13T15:03:20;98120.69;;;9.13;100.00
31681;BME280;18281;51.364;9.566;2023-03-13T15:05:47;98123.06;;;9.16;100.00
31681;BME280;18281;51.364;9.566;2023-03-13T15:08:23;98106.28;;;9.19;100.00
31681;BME280;18281;51.364;9.566;2023-03-13T15:10:49;98105.94;;;9.12;100.00
31681;BME280;18281;51.364;9.566;2023-03-13T15:15:50;98093.59;;;9.35;100.00
31681;BME280;18281;51.364;9.566;2023-03-13T15:18:24;98092.19;;;9.31;100.00
31681;BME280;18281;51.364;9.566;2023-03-13T15:20:54;98079.34;;;9.28;100.00
31681;BME280;18281;51.364;9.566;2023-03-13T15:23:20;98079.47;;;9.27;100.00
31681;BME280;18281;51.364;9.566;2023-03-13T15:25:46;98073.53;;;9.24;100.00